sensor_id;sensor_type;location;lat;lon;timestamp;P1;durP1;ratioP1;P2;durP2;ratioP2
36259;SDS011;22296;50.824;5.644;2023-04-25T00:01:42;6.03;;;3.72;;
36259;SDS011;22296;50.824;5.644;2023-04-25T00:04:08;6.65;;;4.07;;
36259;SDS011;22296;50.824;5.644;2023-04-25T00:06:36;6.22;;;3.65;;
36259;SDS011;22296;50.824;5.644;2023-04-25T00:09:03;5.47;;;3.55;;
36259;SDS011;22296;50.824;5.644;2023-04-25T00:11:33;6.40;;;4.28;;
36259;SDS011;22296;50.824;5.644;2023-04-25T00:14:00;5.10;;;3.72;;
36259;SDS011;22296;50.824;5.644;2023-04-25T00:16:29;6.13;;;3.78;;
36259;SDS011;22296;50.824;5.644;2023-04-25T00:19:00;5.65;;;3.63;;
36259;SDS011;22296;50.824;5.644;2023-04-25T00:21:27;6.32;;;4.03;;
36259;SDS011;22296;50.824;5.644;2023-04-25T00:23:55;4.82;;;3.50;;
36259;SDS011;22296;50.824;5.644;2023-04-25T00:26:22;5.57;;;3.35;;
36259;SDS011;22296;50.824;5.644;2023-04-25T00:28:49;5.88;;;3.30;;
36259;SDS011;22296;50.824;5.644;2023-04-25T00:31:15;6.65;;;3.67;;
36259;SDS011;22296;50.824;5.644;2023-04-25T00:33:42;6.03;;;3.85;;
36259;SDS011;22296;50.824;5.644;2023-04-25T00:36:09;6.07;;;3.83;;
36259;SDS011;22296;50.824;5.644;2023-04-25T00:38:37;6.15;;;3.92;;
36259;SDS011;22296;50.824;5.644;2023-04-25T00:41:05;4.75;;;3.17;;
36259;SDS011;22296;50.824;5.644;2023-04-25T00:43:34;5.90;;;3.60;;
36259;SDS011;22296;50.824;5.644;2023-04-25T00:46:02;4.67;;;3.10;;
36259;SDS011;22296;50.824;5.644;2023-04-25T00:48:29;6.03;;;3.70;;
36259;SDS011;22296;50.824;5.644;2023-04-25T00:50:59;5.05;;;3.25;;
36259;SDS011;22296;50.824;5.644;2023-04-25T00:53:27;5.90;;;3.38;;
36259;SDS011;22296;50.824;5.644;2023-04-25T00:55:54;6.47;;;3.60;;
36259;SDS011;22296;50.824;5.644;2023-04-25T00:58:24;6.85;;;3.88;;
36259;SDS011;22296;50.824;5.644;2023-04-25T01:00:51;5.47;;;3.28;;
36259;SDS011;22296;50.824;5.644;2023-04-25T01:03:18;5.88;;;3.40;;
36259;SDS011;22296;50.824;5.644;2023-04-25T01:05:49;5.72;;;3.53;;
36259;SDS011;22296;50.824;5.644;2023-04-25T01:08:17;5.55;;;3.53;;
36259;SDS011;22296;50.824;5.644;2023-04-25T01:10:43;5.57;;;3.33;;
36259;SDS011;22296;50.824;5.644;2023-04-25T01:13:10;5.32;;;3.15;;
36259;SDS011;22296;50.824;5.644;2023-04-25T01:15:37;5.70;;;3.38;;
36259;SDS011;22296;50.824;5.644;2023-04-25T01:18:05;5.65;;;3.17;;
36259;SDS011;22296;50.824;5.644;2023-04-25T01:20:33;7.50;;;3.28;;
36259;SDS011;22296;50.824;5.644;2023-04-25T01:23:01;5.80;;;3.22;;
36259;SDS011;22296;50.824;5.644;2023-04-25T01:27:58;5.38;;;2.80;;
36259;SDS011;22296;50.824;5.644;2023-04-25T01:30:26;5.73;;;3.17;;
36259;SDS011;22296;50.824;5.644;2023-04-25T01:32:57;5.18;;;3.08;;
36259;SDS011;22296;50.824;5.644;2023-04-25T01:35:27;5.40;;;2.83;;
36259;SDS011;22296;50.824;5.644;2023-04-25T01:37:57;5.65;;;3.45;;
36259;SDS011;22296;50.824;5.644;2023-04-25T01:40:24;5.57;;;3.75;;
36259;SDS011;22296;50.824;5.644;2023-04-25T01:42:51;3.95;;;2.72;;
36259;SDS011;22296;50.824;5.644;2023-04-25T01:45:19;4.25;;;3.17;;
36259;SDS011;22296;50.824;5.644;2023-04-25T01:47:47;6.97;;;3.25;;
36259;SDS011;22296;50.824;5.644;2023-04-25T01:50:16;4.80;;;3.37;;
36259;SDS011;22296;50.824;5.644;2023-04-25T01:52:45;5.05;;;2.92;;
36259;SDS011;22296;50.824;5.644;2023-04-25T01:55:12;3.90;;;2.65;;
36259;SDS011;22296;50.824;5.644;2023-04-25T01:57:52;4.07;;;2.83;;
36259;SDS011;22296;50.824;5.644;2023-04-25T02:00:24;5.63;;;3.28;;
36259;SDS011;22296;50.824;5.644;2023-04-25T02:02:51;5.70;;;2.88;;
36259;SDS011;22296;50.824;5.644;2023-04-25T02:05:26;4.28;;;3.03;;
36259;SDS011;22296;50.824;5.644;2023-04-25T02:07:53;4.72;;;2.92;;
36259;SDS011;22296;50.824;5.644;2023-04-25T02:10:23;4.25;;;2.80;;
36259;SDS011;22296;50.824;5.644;2023-04-25T02:13:04;4.25;;;2.60;;
36259;SDS011;22296;50.824;5.644;2023-04-25T02:15:50;5.53;;;2.85;;
36259;SDS011;22296;50.824;5.644;2023-04-25T02:18:18;5.07;;;3.10;;
36259;SDS011;22296;50.824;5.644;2023-04-25T02:20:45;4.97;;;3.33;;
36259;SDS011;22296;50.824;5.644;2023-04-25T02:23:12;4.50;;;3.00;;
36259;SDS011;22296;50.824;5.644;2023-04-25T02:25:39;5.38;;;2.90;;
36259;SDS011;22296;50.824;5.644;2023-04-25T02:28:05;4.43;;;2.45;;
36259;SDS011;22296;50.824;5.644;2023-04-25T02:30:33;5.18;;;2.95;;
36259;SDS011;22296;50.824;5.644;2023-04-25T02:32:59;4.40;;;2.90;;
36259;SDS011;22296;50.824;5.644;2023-04-25T02:35:28;9.55;;;3.17;;
36259;SDS011;22296;50.824;5.644;2023-04-25T02:37:54;5.95;;;3.05;;
36259;SDS011;22296;50.824;5.644;2023-04-25T02:40:21;4.30;;;2.90;;
36259;SDS011;22296;50.824;5.644;2023-04-25T02:42:48;4.15;;;2.65;;
36259;SDS011;22296;50.824;5.644;2023-04-25T02:45:15;4.72;;;2.47;;
36259;SDS011;22296;50.824;5.644;2023-04-25T02:47:41;5.22;;;2.70;;
36259;SDS011;22296;50.824;5.644;2023-04-25T02:50:08;5.97;;;2.42;;
36259;SDS011;22296;50.824;5.644;2023-04-25T02:52:35;4.85;;;2.90;;
36259;SDS011;22296;50.824;5.644;2023-04-25T02:55:10;4.15;;;2.67;;
36259;SDS011;22296;50.824;5.644;2023-04-25T02:57:38;4.35;;;2.40;;
36259;SDS011;22296;50.824;5.644;2023-04-25T03:00:07;6.97;;;2.70;;
36259;SDS011;22296;50.824;5.644;2023-04-25T03:02:35;4.85;;;2.80;;
36259;SDS011;22296;50.824;5.644;2023-04-25T03:05:01;4.80;;;2.97;;
36259;SDS011;22296;50.824;5.644;2023-04-25T03:07:30;3.20;;;2.30;;
36259;SDS011;22296;50.824;5.644;2023-04-25T03:09:56;3.95;;;2.50;;
36259;SDS011;22296;50.824;5.644;2023-04-25T03:12:23;5.25;;;2.65;;
36259;SDS011;22296;50.824;5.644;2023-04-25T03:14:50;4.90;;;3.03;;
36259;SDS011;22296;50.824;5.644;2023-04-25T03:17:17;4.80;;;3.17;;
36259;SDS011;22296;50.824;5.644;2023-04-25T03:19:44;4.95;;;2.67;;
36259;SDS011;22296;50.824;5.644;2023-04-25T03:22:11;4.03;;;2.72;;
36259;SDS011;22296;50.824;5.644;2023-04-25T03:24:37;4.55;;;2.47;;
36259;SDS011;22296;50.824;5.644;2023-04-25T03:27:04;3.17;;;2.38;;
36259;SDS011;22296;50.824;5.644;2023-04-25T03:29:31;3.78;;;2.60;;
36259;SDS011;22296;50.824;5.644;2023-04-25T03:32:02;3.58;;;2.47;;
36259;SDS011;22296;50.824;5.644;2023-04-25T03:34:29;4.95;;;2.60;;
36259;SDS011;22296;50.824;5.644;2023-04-25T03:36:56;4.75;;;2.47;;
36259;SDS011;22296;50.824;5.644;2023-04-25T03:39:23;5.00;;;2.90;;
36259;SDS011;22296;50.824;5.644;2023-04-25T03:41:51;4.45;;;2.67;;
36259;SDS011;22296;50.824;5.644;2023-04-25T03:44:19;4.78;;;2.60;;
36259;SDS011;22296;50.824;5.644;2023-04-25T03:46:46;4.15;;;2.50;;
36259;SDS011;22296;50.824;5.644;2023-04-25T03:49:13;3.80;;;2.67;;
36259;SDS011;22296;50.824;5.644;2023-04-25T03:52:01;4.53;;;2.22;;
36259;SDS011;22296;50.824;5.644;2023-04-25T03:54:39;4.43;;;2.53;;
36259;SDS011;22296;50.824;5.644;2023-04-25T03:57:10;4.43;;;2.50;;
36259;SDS011;22296;50.824;5.644;2023-04-25T03:59:38;4.00;;;2.40;;
36259;SDS011;22296;50.824;5.644;2023-04-25T04:02:07;4.50;;;2.45;;
36259;SDS011;22296;50.824;5.644;2023-04-25T04:04:35;2.72;;;2.03;;
36259;SDS011;22296;50.824;5.644;2023-04-25T04:07:03;6.95;;;2.70;;
36259;SDS011;22296;50.824;5.644;2023-04-25T04:09:34;4.38;;;2.47;;
36259;SDS011;22296;50.824;5.644;2023-04-25T04:12:05;4.57;;;2.33;;
36259;SDS011;22296;50.824;5.644;2023-04-25T04:14:34;3.15;;;2.38;;
36259;SDS011;22296;50.824;5.644;2023-04-25T04:17:01;4.78;;;2.60;;
36259;SDS011;22296;50.824;5.644;2023-04-25T04:19:28;4.55;;;2.35;;
36259;SDS011;22296;50.824;5.644;2023-04-25T04:22:05;4.47;;;2.20;;
36259;SDS011;22296;50.824;5.644;2023-04-25T04:24:32;4.05;;;2.20;;
36259;SDS011;22296;50.824;5.644;2023-04-25T04:27:02;4.57;;;2.30;;
36259;SDS011;22296;50.824;5.644;2023-04-25T04:29:43;3.58;;;2.25;;
36259;SDS011;22296;50.824;5.644;2023-04-25T04:32:14;4.10;;;2.40;;
36259;SDS011;22296;50.824;5.644;2023-04-25T04:34:42;3.42;;;2.10;;
36259;SDS011;22296;50.824;5.644;2023-04-25T04:37:12;3.50;;;2.40;;
36259;SDS011;22296;50.824;5.644;2023-04-25T04:39:40;5.10;;;2.25;;
36259;SDS011;22296;50.824;5.644;2023-04-25T04:42:26;3.58;;;2.15;;
36259;SDS011;22296;50.824;5.644;2023-04-25T04:45:14;4.43;;;2.10;;
36259;SDS011;22296;50.824;5.644;2023-04-25T04:48:02;5.30;;;2.65;;
36259;SDS011;22296;50.824;5.644;2023-04-25T04:50:32;4.65;;;2.30;;
36259;SDS011;22296;50.824;5.644;2023-04-25T04:56:18;6.93;;;2.50;;
36259;SDS011;22296;50.824;5.644;2023-04-25T04:58:47;4.90;;;2.28;;
36259;SDS011;22296;50.824;5.644;2023-04-25T05:01:24;3.60;;;2.30;;
36259;SDS011;22296;50.824;5.644;2023-04-25T05:04:12;4.50;;;2.33;;
36259;SDS011;22296;50.824;5.644;2023-04-25T05:06:39;3.35;;;2.05;;
36259;SDS011;22296;50.824;5.644;2023-04-25T05:09:16;5.22;;;2.42;;
36259;SDS011;22296;50.824;5.644;2023-04-25T05:12:03;3.55;;;2.13;;
36259;SDS011;22296;50.824;5.644;2023-04-25T05:14:48;2.78;;;2.00;;
36259;SDS011;22296;50.824;5.644;2023-04-25T05:17:47;4.72;;;2.38;;
36259;SDS011;22296;50.824;5.644;2023-04-25T05:20:44;3.70;;;2.05;;
36259;SDS011;22296;50.824;5.644;2023-04-25T05:23:30;4.05;;;2.20;;
36259;SDS011;22296;50.824;5.644;2023-04-25T05:26:21;5.63;;;2.40;;
36259;SDS011;22296;50.824;5.644;2023-04-25T05:28:57;2.78;;;2.17;;
36259;SDS011;22296;50.824;5.644;2023-04-25T05:31:43;3.17;;;2.08;;
36259;SDS011;22296;50.824;5.644;2023-04-25T05:34:13;2.90;;;1.88;;
36259;SDS011;22296;50.824;5.644;2023-04-25T05:36:58;2.75;;;2.00;;
36259;SDS011;22296;50.824;5.644;2023-04-25T05:39:26;4.47;;;2.45;;
36259;SDS011;22296;50.824;5.644;2023-04-25T05:42:10;4.53;;;2.30;;
36259;SDS011;22296;50.824;5.644;2023-04-25T05:45:06;3.03;;;1.98;;
36259;SDS011;22296;50.824;5.644;2023-04-25T05:47:56;3.25;;;2.00;;
36259;SDS011;22296;50.824;5.644;2023-04-25T05:50:36;3.28;;;2.30;;
36259;SDS011;22296;50.824;5.644;2023-04-25T05:53:21;5.03;;;2.40;;
36259;SDS011;22296;50.824;5.644;2023-04-25T05:55:55;4.15;;;1.92;;
36259;SDS011;22296;50.824;5.644;2023-04-25T05:58:34;4.78;;;2.28;;
36259;SDS011;22296;50.824;5.644;2023-04-25T06:01:02;4.20;;;2.20;;
36259;SDS011;22296;50.824;5.644;2023-04-25T06:03:29;3.47;;;2.15;;
36259;SDS011;22296;50.824;5.644;2023-04-25T06:05:57;5.93;;;2.80;;
36259;SDS011;22296;50.824;5.644;2023-04-25T06:08:25;3.45;;;2.10;;
36259;SDS011;22296;50.824;5.644;2023-04-25T06:10:51;3.38;;;2.03;;
36259;SDS011;22296;50.824;5.644;2023-04-25T06:13:18;2.28;;;1.77;;
36259;SDS011;22296;50.824;5.644;2023-04-25T06:15:45;4.78;;;2.20;;
36259;SDS011;22296;50.824;5.644;2023-04-25T06:18:12;4.68;;;1.98;;
36259;SDS011;22296;50.824;5.644;2023-04-25T06:20:39;3.63;;;2.20;;
36259;SDS011;22296;50.824;5.644;2023-04-25T06:23:06;3.90;;;2.00;;
36259;SDS011;22296;50.824;5.644;2023-04-25T06:25:49;3.30;;;2.15;;
36259;SDS011;22296;50.824;5.644;2023-04-25T06:28:16;5.80;;;2.28;;
36259;SDS011;22296;50.824;5.644;2023-04-25T06:30:43;5.80;;;2.03;;
36259;SDS011;22296;50.824;5.644;2023-04-25T06:33:15;3.38;;;2.05;;
36259;SDS011;22296;50.824;5.644;2023-04-25T06:35:42;6.65;;;2.30;;
36259;SDS011;22296;50.824;5.644;2023-04-25T06:40:43;4.18;;;1.95;;
36259;SDS011;22296;50.824;5.644;2023-04-25T06:43:11;4.00;;;2.05;;
36259;SDS011;22296;50.824;5.644;2023-04-25T06:45:53;3.33;;;1.90;;
36259;SDS011;22296;50.824;5.644;2023-04-25T06:48:21;3.47;;;2.00;;
36259;SDS011;22296;50.824;5.644;2023-04-25T06:50:48;3.00;;;1.80;;
36259;SDS011;22296;50.824;5.644;2023-04-25T06:53:16;3.20;;;2.10;;
36259;SDS011;22296;50.824;5.644;2023-04-25T06:55:47;4.18;;;1.80;;
36259;SDS011;22296;50.824;5.644;2023-04-25T06:58:19;2.90;;;1.90;;
36259;SDS011;22296;50.824;5.644;2023-04-25T07:03:17;3.00;;;2.00;;
36259;SDS011;22296;50.824;5.644;2023-04-25T07:05:44;2.85;;;1.65;;
36259;SDS011;22296;50.824;5.644;2023-04-25T07:08:12;3.10;;;1.77;;
36259;SDS011;22296;50.824;5.644;2023-04-25T07:10:39;3.97;;;1.95;;
36259;SDS011;22296;50.824;5.644;2023-04-25T07:13:06;4.15;;;2.20;;
36259;SDS011;22296;50.824;5.644;2023-04-25T07:15:33;3.92;;;1.67;;
36259;SDS011;22296;50.824;5.644;2023-04-25T07:18:00;4.43;;;1.75;;
36259;SDS011;22296;50.824;5.644;2023-04-25T07:20:27;3.75;;;2.10;;
36259;SDS011;22296;50.824;5.644;2023-04-25T07:22:55;3.70;;;2.10;;
36259;SDS011;22296;50.824;5.644;2023-04-25T07:25:22;3.13;;;1.92;;
36259;SDS011;22296;50.824;5.644;2023-04-25T07:27:49;4.72;;;2.03;;
36259;SDS011;22296;50.824;5.644;2023-04-25T07:30:18;4.63;;;2.53;;
36259;SDS011;22296;50.824;5.644;2023-04-25T07:32:44;3.00;;;1.70;;
36259;SDS011;22296;50.824;5.644;2023-04-25T07:35:12;4.35;;;2.03;;
36259;SDS011;22296;50.824;5.644;2023-04-25T07:37:40;3.45;;;1.95;;
36259;SDS011;22296;50.824;5.644;2023-04-25T07:40:13;4.63;;;1.92;;
36259;SDS011;22296;50.824;5.644;2023-04-25T07:42:56;7.38;;;2.08;;
36259;SDS011;22296;50.824;5.644;2023-04-25T07:45:31;2.67;;;1.80;;
36259;SDS011;22296;50.824;5.644;2023-04-25T07:47:58;4.22;;;1.70;;
36259;SDS011;22296;50.824;5.644;2023-04-25T07:50:26;2.47;;;1.63;;
36259;SDS011;22296;50.824;5.644;2023-04-25T07:52:52;3.72;;;1.77;;
36259;SDS011;22296;50.824;5.644;2023-04-25T07:55:29;2.80;;;1.70;;
36259;SDS011;22296;50.824;5.644;2023-04-25T07:58:02;5.32;;;1.88;;
36259;SDS011;22296;50.824;5.644;2023-04-25T08:00:31;4.67;;;2.03;;
36259;SDS011;22296;50.824;5.644;2023-04-25T08:03:17;4.97;;;2.10;;
36259;SDS011;22296;50.824;5.644;2023-04-25T08:05:45;2.08;;;1.40;;
36259;SDS011;22296;50.824;5.644;2023-04-25T08:08:12;4.00;;;1.45;;
36259;SDS011;22296;50.824;5.644;2023-04-25T08:10:40;5.18;;;1.90;;
36259;SDS011;22296;50.824;5.644;2023-04-25T08:13:08;3.75;;;2.20;;
36259;SDS011;22296;50.824;5.644;2023-04-25T08:15:35;3.63;;;1.88;;
36259;SDS011;22296;50.824;5.644;2023-04-25T08:18:02;5.22;;;1.70;;
36259;SDS011;22296;50.824;5.644;2023-04-25T08:20:30;3.90;;;1.95;;
36259;SDS011;22296;50.824;5.644;2023-04-25T08:22:59;3.67;;;1.70;;
36259;SDS011;22296;50.824;5.644;2023-04-25T08:25:41;3.65;;;1.77;;
36259;SDS011;22296;50.824;5.644;2023-04-25T08:28:10;2.70;;;1.92;;
36259;SDS011;22296;50.824;5.644;2023-04-25T08:30:38;3.80;;;1.88;;
36259;SDS011;22296;50.824;5.644;2023-04-25T08:33:06;4.77;;;1.80;;
36259;SDS011;22296;50.824;5.644;2023-04-25T08:35:57;3.38;;;1.70;;
36259;SDS011;22296;50.824;5.644;2023-04-25T08:38:25;5.30;;;2.00;;
36259;SDS011;22296;50.824;5.644;2023-04-25T08:40:52;6.53;;;1.77;;
36259;SDS011;22296;50.824;5.644;2023-04-25T08:43:22;4.00;;;1.83;;
36259;SDS011;22296;50.824;5.644;2023-04-25T08:45:50;4.57;;;1.58;;
36259;SDS011;22296;50.824;5.644;2023-04-25T08:48:32;2.72;;;1.58;;
36259;SDS011;22296;50.824;5.644;2023-04-25T08:51:03;4.25;;;1.80;;
36259;SDS011;22296;50.824;5.644;2023-04-25T08:53:33;2.42;;;1.85;;
36259;SDS011;22296;50.824;5.644;2023-04-25T08:56:03;4.63;;;1.90;;
36259;SDS011;22296;50.824;5.644;2023-04-25T08:58:34;4.30;;;1.70;;
36259;SDS011;22296;50.824;5.644;2023-04-25T09:01:02;2.90;;;1.60;;
36259;SDS011;22296;50.824;5.644;2023-04-25T09:03:36;3.75;;;1.83;;
36259;SDS011;22296;50.824;5.644;2023-04-25T09:06:03;4.45;;;1.80;;
36259;SDS011;22296;50.824;5.644;2023-04-25T09:08:30;4.72;;;1.80;;
36259;SDS011;22296;50.824;5.644;2023-04-25T09:10:57;3.20;;;1.90;;
36259;SDS011;22296;50.824;5.644;2023-04-25T09:13:25;4.10;;;1.60;;
36259;SDS011;22296;50.824;5.644;2023-04-25T09:16:13;2.80;;;1.58;;
36259;SDS011;22296;50.824;5.644;2023-04-25T09:19:03;4.80;;;1.75;;
36259;SDS011;22296;50.824;5.644;2023-04-25T09:21:31;3.50;;;1.90;;
36259;SDS011;22296;50.824;5.644;2023-04-25T09:24:01;3.30;;;1.35;;
36259;SDS011;22296;50.824;5.644;2023-04-25T09:26:28;3.65;;;1.58;;
36259;SDS011;22296;50.824;5.644;2023-04-25T09:29:08;2.55;;;1.52;;
36259;SDS011;22296;50.824;5.644;2023-04-25T09:31:39;3.10;;;2.08;;
36259;SDS011;22296;50.824;5.644;2023-04-25T09:34:07;4.40;;;1.80;;
36259;SDS011;22296;50.824;5.644;2023-04-25T09:36:42;3.92;;;1.80;;
36259;SDS011;22296;50.824;5.644;2023-04-25T09:39:29;4.85;;;1.98;;
36259;SDS011;22296;50.824;5.644;2023-04-25T09:42:10;2.80;;;1.73;;
36259;SDS011;22296;50.824;5.644;2023-04-25T09:44:40;2.92;;;1.50;;
36259;SDS011;22296;50.824;5.644;2023-04-25T09:47:13;2.67;;;1.30;;
36259;SDS011;22296;50.824;5.644;2023-04-25T09:49:43;5.90;;;1.88;;
36259;SDS011;22296;50.824;5.644;2023-04-25T09:52:18;4.22;;;2.28;;
36259;SDS011;22296;50.824;5.644;2023-04-25T09:55:14;2.67;;;1.75;;
36259;SDS011;22296;50.824;5.644;2023-04-25T09:57:44;2.50;;;1.77;;
36259;SDS011;22296;50.824;5.644;2023-04-25T10:00:15;4.05;;;1.67;;
36259;SDS011;22296;50.824;5.644;2023-04-25T10:02:43;3.60;;;1.65;;
36259;SDS011;22296;50.824;5.644;2023-04-25T10:05:30;4.30;;;1.70;;
36259;SDS011;22296;50.824;5.644;2023-04-25T10:07:59;3.75;;;1.90;;
36259;SDS011;22296;50.824;5.644;2023-04-25T10:10:30;3.33;;;1.52;;
36259;SDS011;22296;50.824;5.644;2023-04-25T10:13:03;4.55;;;1.70;;
36259;SDS011;22296;50.824;5.644;2023-04-25T10:15:34;4.43;;;1.60;;
36259;SDS011;22296;50.824;5.644;2023-04-25T10:18:06;4.30;;;1.90;;
36259;SDS011;22296;50.824;5.644;2023-04-25T10:20:33;3.47;;;1.92;;
36259;SDS011;22296;50.824;5.644;2023-04-25T10:23:03;5.15;;;1.95;;
36259;SDS011;22296;50.824;5.644;2023-04-25T10:25:37;5.32;;;2.03;;
36259;SDS011;22296;50.824;5.644;2023-04-25T10:28:05;2.83;;;1.73;;
36259;SDS011;22296;50.824;5.644;2023-04-25T10:30:32;4.70;;;2.30;;
36259;SDS011;22296;50.824;5.644;2023-04-25T10:32:59;2.85;;;1.63;;
36259;SDS011;22296;50.824;5.644;2023-04-25T10:35:29;3.22;;;1.77;;
36259;SDS011;22296;50.824;5.644;2023-04-25T10:38:03;3.63;;;1.90;;
36259;SDS011;22296;50.824;5.644;2023-04-25T10:40:32;2.83;;;1.50;;
36259;SDS011;22296;50.824;5.644;2023-04-25T10:45:59;3.67;;;1.65;;
36259;SDS011;22296;50.824;5.644;2023-04-25T10:48:30;4.25;;;1.90;;
36259;SDS011;22296;50.824;5.644;2023-04-25T10:51:10;3.22;;;1.48;;
36259;SDS011;22296;50.824;5.644;2023-04-25T10:54:18;2.47;;;1.67;;
36259;SDS011;22296;50.824;5.644;2023-04-25T10:56:48;2.47;;;1.30;;
36259;SDS011;22296;50.824;5.644;2023-04-25T10:59:15;2.33;;;1.47;;
36259;SDS011;22296;50.824;5.644;2023-04-25T11:01:46;3.65;;;1.90;;
36259;SDS011;22296;50.824;5.644;2023-04-25T11:04:24;3.65;;;2.05;;
36259;SDS011;22296;50.824;5.644;2023-04-25T11:06:58;2.78;;;1.70;;
36259;SDS011;22296;50.824;5.644;2023-04-25T11:09:38;3.40;;;1.55;;
36259;SDS011;22296;50.824;5.644;2023-04-25T11:12:07;3.92;;;1.90;;
36259;SDS011;22296;50.824;5.644;2023-04-25T11:14:35;4.35;;;2.03;;
36259;SDS011;22296;50.824;5.644;2023-04-25T11:17:02;2.75;;;1.55;;
36259;SDS011;22296;50.824;5.644;2023-04-25T11:19:29;3.67;;;1.63;;
36259;SDS011;22296;50.824;5.644;2023-04-25T11:21:57;2.72;;;1.58;;
36259;SDS011;22296;50.824;5.644;2023-04-25T11:24:34;3.85;;;2.08;;
36259;SDS011;22296;50.824;5.644;2023-04-25T11:27:02;4.65;;;1.60;;
36259;SDS011;22296;50.824;5.644;2023-04-25T11:29:30;4.03;;;1.95;;
36259;SDS011;22296;50.824;5.644;2023-04-25T11:31:58;3.28;;;1.77;;
36259;SDS011;22296;50.824;5.644;2023-04-25T11:34:28;3.42;;;1.60;;
36259;SDS011;22296;50.824;5.644;2023-04-25T11:36:57;6.10;;;1.80;;
36259;SDS011;22296;50.824;5.644;2023-04-25T11:39:25;4.50;;;1.52;;
36259;SDS011;22296;50.824;5.644;2023-04-25T11:41:52;6.18;;;1.48;;
36259;SDS011;22296;50.824;5.644;2023-04-25T11:44:20;3.50;;;1.60;;
36259;SDS011;22296;50.824;5.644;2023-04-25T11:46:48;6.45;;;1.63;;
36259;SDS011;22296;50.824;5.644;2023-04-25T11:49:15;3.85;;;1.60;;
36259;SDS011;22296;50.824;5.644;2023-04-25T11:51:45;2.28;;;1.30;;
36259;SDS011;22296;50.824;5.644;2023-04-25T11:54:14;5.10;;;1.77;;
36259;SDS011;22296;50.824;5.644;2023-04-25T11:56:42;2.40;;;1.70;;
36259;SDS011;22296;50.824;5.644;2023-04-25T11:59:10;1.98;;;1.38;;
36259;SDS011;22296;50.824;5.644;2023-04-25T12:01:39;2.72;;;1.80;;
36259;SDS011;22296;50.824;5.644;2023-04-25T12:04:14;3.50;;;1.37;;
36259;SDS011;22296;50.824;5.644;2023-04-25T12:06:44;2.67;;;1.55;;
36259;SDS011;22296;50.824;5.644;2023-04-25T12:09:17;2.08;;;1.38;;
36259;SDS011;22296;50.824;5.644;2023-04-25T12:11:49;2.08;;;1.38;;
36259;SDS011;22296;50.824;5.644;2023-04-25T12:14:23;5.80;;;1.58;;
36259;SDS011;22296;50.824;5.644;2023-04-25T12:16:56;2.42;;;1.17;;
36259;SDS011;22296;50.824;5.644;2023-04-25T12:19:31;2.95;;;1.42;;
36259;SDS011;22296;50.824;5.644;2023-04-25T12:22:00;2.40;;;1.20;;
36259;SDS011;22296;50.824;5.644;2023-04-25T12:24:27;2.72;;;1.48;;
36259;SDS011;22296;50.824;5.644;2023-04-25T12:27:04;3.20;;;1.48;;
36259;SDS011;22296;50.824;5.644;2023-04-25T12:29:33;1.70;;;1.45;;
36259;SDS011;22296;50.824;5.644;2023-04-25T12:32:14;3.60;;;1.70;;
36259;SDS011;22296;50.824;5.644;2023-04-25T12:34:41;2.40;;;1.55;;
36259;SDS011;22296;50.824;5.644;2023-04-25T12:37:08;5.55;;;2.00;;
36259;SDS011;22296;50.824;5.644;2023-04-25T12:39:35;4.60;;;1.80;;
36259;SDS011;22296;50.824;5.644;2023-04-25T12:42:02;3.13;;;1.52;;
36259;SDS011;22296;50.824;5.644;2023-04-25T12:44:32;3.60;;;1.77;;
36259;SDS011;22296;50.824;5.644;2023-04-25T12:46:59;3.33;;;1.40;;
36259;SDS011;22296;50.824;5.644;2023-04-25T12:49:26;4.05;;;1.50;;
36259;SDS011;22296;50.824;5.644;2023-04-25T12:51:53;6.97;;;1.58;;
36259;SDS011;22296;50.824;5.644;2023-04-25T12:54:19;3.35;;;1.50;;
36259;SDS011;22296;50.824;5.644;2023-04-25T12:56:46;3.95;;;1.50;;
36259;SDS011;22296;50.824;5.644;2023-04-25T12:59:13;3.05;;;1.52;;
36259;SDS011;22296;50.824;5.644;2023-04-25T13:01:40;3.33;;;1.58;;
36259;SDS011;22296;50.824;5.644;2023-04-25T13:04:07;2.58;;;1.48;;
36259;SDS011;22296;50.824;5.644;2023-04-25T13:06:34;2.92;;;1.50;;
36259;SDS011;22296;50.824;5.644;2023-04-25T13:09:01;2.63;;;1.52;;
36259;SDS011;22296;50.824;5.644;2023-04-25T13:11:29;3.88;;;1.30;;
36259;SDS011;22296;50.824;5.644;2023-04-25T13:13:56;2.10;;;1.40;;
36259;SDS011;22296;50.824;5.644;2023-04-25T13:16:22;3.85;;;1.60;;
36259;SDS011;22296;50.824;5.644;2023-04-25T13:18:49;2.67;;;1.40;;
36259;SDS011;22296;50.824;5.644;2023-04-25T13:21:16;3.63;;;1.42;;
36259;SDS011;22296;50.824;5.644;2023-04-25T13:23:43;2.97;;;1.70;;
36259;SDS011;22296;50.824;5.644;2023-04-25T13:26:11;4.30;;;1.73;;
36259;SDS011;22296;50.824;5.644;2023-04-25T13:28:37;2.65;;;1.55;;
36259;SDS011;22296;50.824;5.644;2023-04-25T13:31:04;3.17;;;1.58;;
36259;SDS011;22296;50.824;5.644;2023-04-25T13:33:31;3.65;;;1.67;;
36259;SDS011;22296;50.824;5.644;2023-04-25T13:35:58;4.38;;;2.00;;
36259;SDS011;22296;50.824;5.644;2023-04-25T13:38:24;2.85;;;1.75;;
36259;SDS011;22296;50.824;5.644;2023-04-25T13:40:52;5.53;;;2.15;;
36259;SDS011;22296;50.824;5.644;2023-04-25T13:43:19;4.15;;;1.98;;
36259;SDS011;22296;50.824;5.644;2023-04-25T13:45:48;4.93;;;2.37;;
36259;SDS011;22296;50.824;5.644;2023-04-25T13:48:15;4.38;;;2.08;;
36259;SDS011;22296;50.824;5.644;2023-04-25T13:50:42;5.63;;;2.33;;
36259;SDS011;22296;50.824;5.644;2023-04-25T13:53:09;4.95;;;2.30;;
36259;SDS011;22296;50.824;5.644;2023-04-25T13:55:36;3.88;;;2.08;;
36259;SDS011;22296;50.824;5.644;2023-04-25T13:58:03;5.65;;;2.22;;
36259;SDS011;22296;50.824;5.644;2023-04-25T14:00:35;5.38;;;2.45;;
36259;SDS011;22296;50.824;5.644;2023-04-25T14:03:04;6.25;;;2.30;;
36259;SDS011;22296;50.824;5.644;2023-04-25T14:05:34;3.10;;;2.35;;
36259;SDS011;22296;50.824;5.644;2023-04-25T14:08:08;4.82;;;2.10;;
36259;SDS011;22296;50.824;5.644;2023-04-25T14:10:36;5.00;;;2.38;;
36259;SDS011;22296;50.824;5.644;2023-04-25T14:13:04;5.18;;;2.47;;
36259;SDS011;22296;50.824;5.644;2023-04-25T14:18:00;2.65;;;1.80;;
36259;SDS011;22296;50.824;5.644;2023-04-25T14:20:27;4.82;;;2.50;;
36259;SDS011;22296;50.824;5.644;2023-04-25T14:22:54;4.85;;;2.15;;
36259;SDS011;22296;50.824;5.644;2023-04-25T14:25:23;4.07;;;1.95;;
36259;SDS011;22296;50.824;5.644;2023-04-25T14:27:51;3.92;;;2.05;;
36259;SDS011;22296;50.824;5.644;2023-04-25T14:30:18;3.38;;;2.00;;
36259;SDS011;22296;50.824;5.644;2023-04-25T14:32:48;3.92;;;1.98;;
36259;SDS011;22296;50.824;5.644;2023-04-25T14:35:16;4.72;;;2.05;;
36259;SDS011;22296;50.824;5.644;2023-04-25T14:37:43;3.80;;;2.00;;
36259;SDS011;22296;50.824;5.644;2023-04-25T14:40:10;3.92;;;2.25;;
36259;SDS011;22296;50.824;5.644;2023-04-25T14:42:39;5.40;;;2.47;;
36259;SDS011;22296;50.824;5.644;2023-04-25T14:45:07;4.93;;;2.40;;
36259;SDS011;22296;50.824;5.644;2023-04-25T14:47:35;4.57;;;2.10;;
36259;SDS011;22296;50.824;5.644;2023-04-25T14:50:03;7.18;;;2.25;;
36259;SDS011;22296;50.824;5.644;2023-04-25T14:52:31;5.28;;;2.28;;
36259;SDS011;22296;50.824;5.644;2023-04-25T14:54:58;5.80;;;1.95;;
36259;SDS011;22296;50.824;5.644;2023-04-25T14:57:26;5.43;;;2.60;;
36259;SDS011;22296;50.824;5.644;2023-04-25T14:59:53;3.78;;;1.70;;
36259;SDS011;22296;50.824;5.644;2023-04-25T15:02:20;4.03;;;2.22;;
36259;SDS011;22296;50.824;5.644;2023-04-25T15:04:47;4.93;;;2.05;;
36259;SDS011;22296;50.824;5.644;2023-04-25T15:07:14;3.88;;;2.38;;
36259;SDS011;22296;50.824;5.644;2023-04-25T15:09:43;6.10;;;2.63;;
36259;SDS011;22296;50.824;5.644;2023-04-25T15:12:10;5.93;;;2.17;;
36259;SDS011;22296;50.824;5.644;2023-04-25T15:14:37;3.08;;;1.85;;
36259;SDS011;22296;50.824;5.644;2023-04-25T15:17:04;3.90;;;2.08;;
36259;SDS011;22296;50.824;5.644;2023-04-25T15:19:31;3.13;;;2.03;;
36259;SDS011;22296;50.824;5.644;2023-04-25T15:21:58;6.25;;;1.90;;
36259;SDS011;22296;50.824;5.644;2023-04-25T15:24:29;3.33;;;1.92;;